Time;durP1;ratioP1;P1;durP2;ratioP2;P2;SDS_P1;SDS_P2;PMS_P1;PMS_P2;Temp;Humidity;BMP_temperature;BMP_pressure;BME280_temperature;BME280_humidity;BME280_pressure;Samples;Min_cycle;Max_cycle;Signal;HPM_P1;HPM_P2
2021/07/09 06:24:10;;;;;;;12.73;11.52;;;;;;;;;;10545985;28;20032;-86
2021/07/09 06:35:35;;;;;;;12.48;11.27;;;;;;;;;;10537073;28;20386;-86
2021/07/09 06:58:45;;;;;;;4.38;3.97;;;;;;;;;;10424967;28;20113;-87
2021/07/09 07:03:47;;;;;;;3.90;3.60;;;;;;;;;;10464416;28;20115;-83
2021/07/09 07:08:48;;;;;;;4.90;4.50;;;;;;;;;;10511302;28;20036;-83
2021/07/09 07:13:48;;;;;;;7.57;6.10;;;;;;;;;;10511779;28;20028;-82
2021/07/09 07:18:49;;;;;;;9.48;8.48;;;;;;;;;;10512743;28;20024;-84
2021/07/09 07:23:51;;;;;;;7.90;6.88;;;;;;;;;;10516782;28;20043;-82
2021/07/09 07:28:52;;;;;;;8.73;7.97;;;;;;;;;;10515588;28;20474;-82
2021/07/09 07:33:53;;;;;;;10.52;8.70;;;;;;;;;;10515105;28;20021;-82
2021/07/09 07:38:54;;;;;;;9.80;8.90;;;;;;;;;;10512152;28;20088;-83
2021/07/09 07:44:13;;;;;;;8.30;7.50;;;;;;;;;;10509706;28;20027;-82
2021/07/09 07:49:29;;;;;;;8.77;7.60;;;;;;;;;;10517241;28;20048;-81
2021/07/09 07:54:30;;;;;;;9.30;8.27;;;;;;;;;;10513325;28;20039;-83
2021/07/09 07:59:33;;;;;;;10.23;6.72;;;;;;;;;;10514000;28;20021;-82
2021/07/09 08:04:34;;;;;;;12.05;10.88;;;;;;;;;;10511543;28;20029;-83
2021/07/09 08:09:35;;;;;;;8.38;7.35;;;;;;;;;;10510199;28;20048;-83
2021/07/09 08:14:37;;;;;;;9.07;6.60;;;;;;;;;;10511369;28;20478;-82
2021/07/09 08:19:38;;;;;;;8.15;7.35;;;;;;;;;;10510742;28;20122;-82
2021/07/09 08:24:41;;;;;;;7.50;6.80;;;;;;;;;;10511720;28;20029;-82
2021/07/09 08:29:43;;;;;;;11.77;7.90;;;;;;;;;;10508149;28;20024;-80
2021/07/09 08:34:46;;;;;;;12.00;10.85;;;;;;;;;;10508967;28;20031;-81
2021/07/09 08:39:47;;;;;;;8.27;7.38;;;;;;;;;;10516192;28;20101;-84
2021/07/09 08:44:52;;;;;;;7.55;6.80;;;;;;;;;;10510985;28;20418;-85
2021/07/09 08:49:53;;;;;;;12.15;10.95;;;;;;;;;;10504629;28;20056;-86
2021/07/09 08:54:54;;;;;;;10.55;9.55;;;;;;;;;;10509246;28;20028;-84
2021/07/09 08:59:58;;;;;;;9.38;8.48;;;;;;;;;;10508627;28;20445;-85
2021/07/09 09:10:38;;;;;;;;;;;;;;;;;;10510889;28;20029;-81
2021/07/09 09:15:41;;;;;;;14.50;13.10;;;;;;;;;;10505653;28;19995;-79
2021/07/09 09:20:42;;;;;;;14.55;13.25;;;;;;;;;;10505172;28;20027;-79
2021/07/09 09:25:43;;;;;;;11.05;10.05;;;;;;;;;;10505654;28;20057;-79
2021/07/09 09:30:45;;;;;;;7.88;6.90;;;;;;;;;;10507054;28;20032;-81
2021/07/09 09:35:48;;;;;;;9.10;7.10;;;;;;;;;;10506556;28;20028;-80
2021/07/09 09:40:50;;;;;;;9.63;8.63;;;;;;;;;;10505156;28;20343;-80
2021/07/09 09:46:03;;;;;;;7.70;6.95;;;;;;;;;;10502638;28;20050;-79
2021/07/09 09:51:22;;;;;;;7.65;6.85;;;;;;;;;;10504806;28;20027;-79
2021/07/09 09:56:33;;;;;;;7.70;6.90;;;;;;;;;;10505527;28;20387;-80
2021/07/09 10:01:34;;;;;;;6.82;5.22;;;;;;;;;;10506054;28;20035;-79
2021/07/09 10:06:35;;;;;;;7.15;6.45;;;;;;;;;;10508079;28;20051;-78
2021/07/09 10:11:38;;;;;;;6.25;5.60;;;;;;;;;;10504674;28;20386;-80
2021/07/09 10:16:40;;;;;;;4.93;4.32;;;;;;;;;;10508478;28;20026;-78
2021/07/09 10:21:41;;;;;;;10.13;5.03;;;;;;;;;;10506208;28;20024;-80
2021/07/09 10:26:49;;;;;;;5.00;4.10;;;;;;;;;;10502882;28;20505;-80
2021/07/09 10:31:52;;;;;;;3.30;3.00;;;;;;;;;;10502351;28;20028;-79
2021/07/09 10:36:56;;;;;;;5.72;5.13;;;;;;;;;;10501664;28;20032;-79
2021/07/09 10:42:11;;;;;;;4.93;4.35;;;;;;;;;;10508239;28;20025;-79
2021/07/09 10:47:19;;;;;;;4.40;3.92;;;;;;;;;;10510691;28;20359;-79
2021/07/09 10:52:39;;;;;;;3.87;3.47;;;;;;;;;;10514410;28;20043;-78
2021/07/09 10:57:40;;;;;;;5.57;4.80;;;;;;;;;;10508377;28;20029;-82
2021/07/09 11:02:58;;;;;;;2.78;2.42;;;;;;;;;;10517228;28;20075;-82
2021/07/09 11:08:18;;;;;;;3.42;3.13;;;;;;;;;;10514245;28;20058;-82
2021/07/09 11:13:39;;;;;;;4.00;3.38;;;;;;;;;;10515773;28;20024;-82
2021/07/09 11:18:49;;;;;;;4.40;3.42;;;;;;;;;;10516193;28;20074;-83
2021/07/09 11:23:51;;;;;;;3.00;2.80;;;;;;;;;;10497528;28;20142;-84
2021/07/09 11:28:57;;;;;;;4.22;3.80;;;;;;;;;;10510885;28;20021;-81
2021/07/09 11:34:01;;;;;;;6.25;4.05;;;;;;;;;;10509279;28;20036;-80
2021/07/09 11:39:09;;;;;;;4.25;3.13;;;;;;;;;;10513047;28;20047;-83
2021/07/09 11:44:10;;;;;;;5.15;3.35;;;;;;;;;;10513771;28;20059;-83
2021/07/09 11:49:11;;;;;;;4.53;3.03;;;;;;;;;;10519575;28;20051;-84
2021/07/09 11:54:12;;;;;;;4.25;3.20;;;;;;;;;;10494135;28;20124;-80
2021/07/09 11:59:17;;;;;;;3.30;3.00;;;;;;;;;;10509294;28;20028;-81
2021/07/09 12:04:38;;;;;;;4.03;2.78;;;;;;;;;;10510752;28;20039;-81
2021/07/09 12:09:39;;;;;;;3.47;2.85;;;;;;;;;;10512649;28;20028;-83
2021/07/09 12:14:53;;;;;;;4.30;2.33;;;;;;;;;;10510921;28;20024;-80
2021/07/09 12:19:59;;;;;;;4.13;3.47;;;;;;;;;;10509280;28;20111;-81
2021/07/09 12:25:04;;;;;;;3.83;2.95;;;;;;;;;;10507116;28;20021;-81
2021/07/09 12:30:08;;;;;;;4.85;4.38;;;;;;;;;;10506245;28;20021;-80
2021/07/09 12:35:09;;;;;;;3.50;2.90;;;;;;;;;;10506939;28;20025;-81
2021/07/09 12:40:15;;;;;;;5.18;4.13;;;;;;;;;;10508559;28;20052;-82
2021/07/09 12:45:17;;;;;;;5.00;4.03;;;;;;;;;;10506199;28;20178;-82
2021/07/09 12:50:19;;;;;;;4.47;3.92;;;;;;;;;;10507648;28;20040;-81
2021/07/09 12:55:37;;;;;;;3.03;2.55;;;;;;;;;;10506437;28;20052;-81
2021/07/09 13:00:39;;;;;;;6.85;6.15;;;;;;;;;;10508188;28;20186;-85
2021/07/09 13:05:40;;;;;;;3.35;3.05;;;;;;;;;;10513966;28;20126;-84
2021/07/09 13:10:41;;;;;;;5.68;3.50;;;;;;;;;;10511474;28;20032;-84
2021/07/09 13:16:04;;;;;;;4.43;3.22;;;;;;;;;;10510133;28;20300;-85
2021/07/09 13:21:07;;;;;;;4.13;3.70;;;;;;;;;;10513338;28;20020;-86
2021/07/09 13:26:18;;;;;;;6.07;4.32;;;;;;;;;;10512297;28;20445;-86
2021/07/09 13:31:19;;;;;;;3.70;3.40;;;;;;;;;;10514884;28;20024;-85
2021/07/09 13:42:00;;;;;;;4.50;3.45;;;;;;;;;;10531867;28;20120;-86
2021/07/09 13:58:25;;;;;;;4.10;3.70;;;;;;;;;;10509122;28;20020;-84
2021/07/09 14:09:47;;;;;;;4.82;4.43;;;;;;;;;;10507362;28;20028;-83
2021/07/09 14:15:02;;;;;;;4.65;4.18;;;;;;;;;;10517841;28;20029;-81
2021/07/09 14:20:28;;;;;;;4.57;3.90;;;;;;;;;;10514951;28;20423;-82
2021/07/09 14:37:44;;;;;;;4.88;3.90;;;;;;;;;;10516008;28;20021;-86
2021/07/09 14:43:52;;;;;;;8.07;5.22;;;;;;;;;;10504746;28;20036;-86
2021/07/09 14:54:42;;;;;;;6.22;5.60;;;;;;;;;;10510314;28;20036;-84
2021/07/09 15:22:07;;;;;;;6.50;5.90;;;;;;;;;;10612235;28;19903;-82
2021/07/09 15:27:52;;;;;;;7.32;6.53;;;;;;;;;;10444689;28;20172;-82
2021/07/09 15:33:17;;;;;;;5.10;4.60;;;;;;;;;;10446168;28;20380;-84
2021/07/09 15:44:00;;;;;;;6.77;4.93;;;;;;;;;;10582524;28;20027;-83
2021/07/09 15:55:04;;;;;;;6.20;4.60;;;;;;;;;;10612746;28;20044;-82
2021/07/09 16:00:18;;;;;;;5.05;4.45;;;;;;;;;;10566502;28;20390;-83
2021/07/09 16:05:44;;;;;;;6.00;5.13;;;;;;;;;;10611471;28;20057;-83
2021/07/09 16:16:27;;;;;;;5.90;5.10;;;;;;;;;;10612490;28;20028;-83
2021/07/09 16:21:32;;;;;;;5.82;5.20;;;;;;;;;;10611908;28;20061;-83
2021/07/09 16:26:33;;;;;;;5.03;4.63;;;;;;;;;;10618206;28;20019;-83
2021/07/09 16:31:38;;;;;;;5.85;5.35;;;;;;;;;;10619078;28;20043;-82
2021/07/09 16:36:39;;;;;;;7.00;4.93;;;;;;;;;;10619455;28;20091;-83
2021/07/09 16:41:40;;;;;;;6.93;5.45;;;;;;;;;;10612397;28;20060;-82
2021/07/09 16:46:41;;;;;;;6.80;6.05;;;;;;;;;;10621692;28;20460;-81
2021/07/09 16:51:43;;;;;;;7.05;6.35;;;;;;;;;;10629909;28;20066;-82
2021/07/09 16:56:44;;;;;;;6.10;5.50;;;;;;;;;;10630967;28;20061;-82
2021/07/09 17:01:45;;;;;;;7.05;6.35;;;;;;;;;;10617026;28;20099;-83
2021/07/09 17:06:46;;;;;;;6.93;6.28;;;;;;;;;;10617938;28;20099;-82
2021/07/09 17:11:47;;;;;;;8.68;7.88;;;;;;;;;;10619121;28;20040;-82
2021/07/09 17:16:48;;;;;;;7.85;6.75;;;;;;;;;;10615790;28;20036;-83
2021/07/09 17:21:49;;;;;;;7.22;6.53;;;;;;;;;;10613419;28;20065;-82
2021/07/09 17:26:50;;;;;;;6.50;5.90;;;;;;;;;;10614524;28;20038;-83
2021/07/09 17:31:51;;;;;;;6.90;6.28;;;;;;;;;;10608064;28;20038;-83
2021/07/09 17:36:53;;;;;;;7.00;6.30;;;;;;;;;;10608609;28;20024;-83
2021/07/09 17:41:54;;;;;;;7.53;6.82;;;;;;;;;;10609028;28;20080;-83
2021/07/09 17:46:55;;;;;;;6.63;6.03;;;;;;;;;;10609137;28;20066;-82
2021/07/09 17:51:56;;;;;;;8.23;7.45;;;;;;;;;;10607569;28;20080;-83
2021/07/09 17:56:57;;;;;;;8.32;7.53;;;;;;;;;;10613288;28;20038;-83
2021/07/09 18:01:58;;;;;;;6.47;5.90;;;;;;;;;;10608250;28;20122;-82
2021/07/09 18:06:59;;;;;;;10.27;8.00;;;;;;;;;;10610289;28;20027;-82
2021/07/09 18:12:00;;;;;;;15.05;10.30;;;;;;;;;;10606764;28;20409;-82
2021/07/09 18:17:01;;;;;;;9.55;8.60;;;;;;;;;;10627921;28;20424;-82
2021/07/09 18:22:02;;;;;;;9.02;8.15;;;;;;;;;;10612357;28;20040;-83
2021/07/09 18:27:03;;;;;;;10.10;8.98;;;;;;;;;;10618216;28;20032;-82
2021/07/09 18:32:04;;;;;;;9.73;8.65;;;;;;;;;;10618386;28;20065;-83
2021/07/09 18:37:05;;;;;;;9.60;8.40;;;;;;;;;;10617564;28;20035;-83
2021/07/09 18:42:07;;;;;;;9.95;8.98;;;;;;;;;;10616740;28;20032;-82
2021/07/09 18:47:08;;;;;;;9.52;8.30;;;;;;;;;;10618389;28;20042;-83
2021/07/09 18:52:09;;;;;;;10.95;9.88;;;;;;;;;;10613201;28;20043;-83
2021/07/09 18:57:10;;;;;;;9.13;8.23;;;;;;;;;;10610983;28;20040;-82
2021/07/09 19:02:11;;;;;;;10.52;9.50;;;;;;;;;;10616425;28;20193;-82
2021/07/09 19:07:12;;;;;;;10.85;9.75;;;;;;;;;;10615149;28;20032;-82
2021/07/09 19:12:13;;;;;;;9.35;8.52;;;;;;;;;;10617395;28;20038;-82
2021/07/09 19:17:14;;;;;;;13.30;12.10;;;;;;;;;;10617616;28;20008;-83
2021/07/09 19:22:19;;;;;;;10.05;9.10;;;;;;;;;;10634321;27;20054;-83
2021/07/09 19:27:20;;;;;;;8.82;8.02;;;;;;;;;;10614725;28;20047;-83
2021/07/09 19:32:23;;;;;;;10.23;9.30;;;;;;;;;;10613473;28;20048;-83
2021/07/09 19:37:24;;;;;;;10.05;8.77;;;;;;;;;;10614885;28;20550;-82
2021/07/09 19:42:25;;;;;;;11.15;10.15;;;;;;;;;;10619513;28;20053;-82
2021/07/09 19:47:26;;;;;;;10.18;9.18;;;;;;;;;;10652586;27;20065;-83
2021/07/09 19:52:26;;;;;;;9.50;8.65;;;;;;;;;;10635660;28;20027;-82
2021/07/09 19:57:27;;;;;;;11.32;10.13;;;;;;;;;;10632824;28;20036;-82
2021/07/09 20:02:29;;;;;;;9.30;8.43;;;;;;;;;;10638586;27;20031;-83
2021/07/09 20:07:30;;;;;;;7.88;7.07;;;;;;;;;;10619334;28;20067;-83
2021/07/09 20:12:31;;;;;;;9.65;8.82;;;;;;;;;;10617596;28;20040;-82
2021/07/09 20:17:32;;;;;;;7.18;6.53;;;;;;;;;;10618870;28;20115;-83
2021/07/09 20:22:33;;;;;;;12.60;11.40;;;;;;;;;;10623554;28;20046;-83
2021/07/09 20:27:34;;;;;;;8.20;7.50;;;;;;;;;;10643759;27;20038;-83
2021/07/09 20:32:35;;;;;;;7.15;6.45;;;;;;;;;;10629825;28;20034;-83
2021/07/09 20:37:36;;;;;;;10.35;9.45;;;;;;;;;;10622311;28;20080;-84
2021/07/09 20:42:37;;;;;;;9.85;9.02;;;;;;;;;;10616326;28;20453;-83
2021/07/09 20:47:38;;;;;;;10.20;9.20;;;;;;;;;;10614051;28;20093;-82
2021/07/09 20:52:40;;;;;;;8.73;7.90;;;;;;;;;;10614472;28;20044;-83
2021/07/09 20:57:41;;;;;;;7.57;6.88;;;;;;;;;;10613557;28;20035;-83
2021/07/09 21:02:43;;;;;;;8.18;7.38;;;;;;;;;;10672531;22;20036;-83
